Time;durP1;ratioP1;P1;durP2;ratioP2;P2;SDS_P1;SDS_P2;PMS_P1;PMS_P2;Temp;Humidity;BMP_temperature;BMP_pressure;BME280_temperature;BME280_humidity;BME280_pressure;Samples;Min_cycle;Max_cycle;Signal;HPM_P1;HPM_P2
2021/08/01 00:00:06;;;;;;;4.97;2.58;;;19.90;99.90;;;;;;5073008;28;20232;-64
2021/08/01 00:02:33;;;;;;;6.53;2.92;;;19.90;99.90;;;;;;5072960;28;20201;-64
2021/08/01 00:04:59;;;;;;;6.18;3.00;;;19.90;99.90;;;;;;5072602;28;20200;-65
2021/08/01 00:07:26;;;;;;;4.18;2.80;;;19.80;99.90;;;;;;5073058;28;20216;-64
2021/08/01 00:09:58;;;;;;;6.80;3.08;;;19.80;99.90;;;;;;5072586;28;20735;-64
2021/08/01 00:12:25;;;;;;;4.63;2.85;;;19.70;99.90;;;;;;5072915;28;20312;-64
2021/08/01 00:14:52;;;;;;;4.60;2.70;;;19.70;99.90;;;;;;5072480;28;20219;-64
2021/08/01 00:17:20;;;;;;;5.35;2.80;;;19.70;99.90;;;;;;5072662;28;20212;-63
2021/08/01 00:19:46;;;;;;;6.85;3.22;;;19.80;99.90;;;;;;5072191;28;20232;-63
2021/08/01 00:22:13;;;;;;;5.55;3.50;;;19.70;99.90;;;;;;5072209;28;20201;-63
2021/08/01 00:24:40;;;;;;;6.85;3.92;;;19.80;99.90;;;;;;5071977;28;20208;-64
2021/08/01 00:27:07;;;;;;;10.10;3.92;;;19.80;99.90;;;;;;5072667;28;20212;-64
2021/08/01 00:29:33;;;;;;;6.22;4.05;;;19.70;99.90;;;;;;5072359;28;20221;-64
2021/08/01 00:32:01;;;;;;;6.57;4.53;;;19.70;99.90;;;;;;5072166;28;20212;-64
2021/08/01 00:34:29;;;;;;;7.20;4.43;;;19.60;99.90;;;;;;5072220;28;20205;-62
2021/08/01 00:36:56;;;;;;;7.63;4.50;;;19.60;99.90;;;;;;5072286;28;20205;-64
2021/08/01 00:39:22;;;;;;;7.28;4.50;;;19.50;99.90;;;;;;5072213;28;20233;-64
2021/08/01 00:41:49;;;;;;;7.35;4.95;;;19.40;99.90;;;;;;5072421;28;20587;-64
2021/08/01 00:44:16;;;;;;;8.85;5.13;;;19.40;99.90;;;;;;5072065;28;20251;-65
2021/08/01 00:46:46;;;;;;;9.68;5.25;;;19.40;99.90;;;;;;5072092;28;20688;-64
2021/08/01 00:49:13;;;;;;;10.20;4.68;;;19.40;99.90;;;;;;5071633;28;20282;-62
2021/08/01 00:51:42;;;;;;;10.32;4.90;;;19.40;99.90;;;;;;5071809;28;20201;-62
2021/08/01 00:54:09;;;;;;;9.88;4.75;;;19.30;99.90;;;;;;5071737;28;20229;-62
2021/08/01 00:56:36;;;;;;;7.57;4.43;;;19.20;99.90;;;;;;5072203;28;20250;-61
2021/08/01 00:59:03;;;;;;;6.97;3.97;;;19.20;99.90;;;;;;5071576;28;20208;-61
2021/08/01 01:01:40;;;;;;;7.75;3.90;;;19.20;99.90;;;;;;5071724;28;20696;-62
2021/08/01 01:04:15;;;;;;;7.15;4.07;;;19.00;99.90;;;;;;5073238;28;20253;-62
2021/08/01 01:06:53;;;;;;;7.30;4.10;;;19.00;99.90;;;;;;5076064;28;20212;-62
2021/08/01 01:09:24;;;;;;;8.52;4.25;;;19.00;99.90;;;;;;5071368;28;20323;-62
2021/08/01 01:11:54;;;;;;;6.10;3.80;;;18.90;99.90;;;;;;5071539;28;20208;-62
2021/08/01 01:14:23;;;;;;;7.07;4.38;;;18.90;99.90;;;;;;5071022;28;20229;-62
2021/08/01 01:16:54;;;;;;;6.22;3.90;;;19.00;99.90;;;;;;5071457;28;20209;-62
2021/08/01 01:19:44;;;;;;;7.22;4.18;;;19.00;99.90;;;;;;5071396;28;20235;-62
2021/08/01 01:22:20;;;;;;;5.93;3.85;;;18.90;99.90;;;;;;5069607;28;20205;-63
2021/08/01 01:24:50;;;;;;;6.05;3.80;;;19.00;99.90;;;;;;5071644;28;20231;-62
2021/08/01 01:27:25;;;;;;;7.20;3.80;;;18.80;99.90;;;;;;5071758;28;20227;-62
2021/08/01 01:29:58;;;;;;;6.53;3.88;;;18.70;99.90;;;;;;5070912;28;20239;-62
2021/08/01 01:32:31;;;;;;;5.53;4.07;;;18.70;99.90;;;;;;5070989;28;20300;-62
2021/08/01 01:35:03;;;;;;;7.32;3.83;;;18.80;99.90;;;;;;5071003;28;20703;-63
2021/08/01 01:37:32;;;;;;;6.13;4.07;;;18.70;99.90;;;;;;5070886;28;20201;-62
2021/08/01 01:40:00;;;;;;;7.03;4.07;;;18.60;99.90;;;;;;5071020;28;20233;-63
2021/08/01 01:42:29;;;;;;;9.32;4.57;;;18.50;99.90;;;;;;5071037;28;20580;-62
2021/08/01 01:44:57;;;;;;;7.53;4.40;;;18.40;99.90;;;;;;5070824;28;20212;-63
2021/08/01 01:47:25;;;;;;;6.40;4.22;;;18.30;99.90;;;;;;5070982;28;20616;-62
2021/08/01 01:49:54;;;;;;;8.77;4.53;;;18.20;99.90;;;;;;5070734;28;20232;-62
2021/08/01 01:52:23;;;;;;;6.13;3.90;;;18.20;99.90;;;;;;5071605;28;20567;-62
2021/08/01 01:54:52;;;;;;;8.32;5.00;;;18.20;99.90;;;;;;5072216;28;20215;-62
2021/08/01 01:57:19;;;;;;;6.70;4.45;;;18.10;99.90;;;;;;5074616;28;20266;-61
2021/08/01 01:59:46;;;;;;;6.75;4.18;;;18.30;99.90;;;;;;5075984;28;20229;-62
2021/08/01 02:02:14;;;;;;;9.80;4.22;;;18.30;99.90;;;;;;5075807;28;20223;-63
2021/08/01 02:04:41;;;;;;;6.45;3.85;;;18.30;99.90;;;;;;5075335;28;20278;-63
2021/08/01 02:07:08;;;;;;;7.95;3.97;;;18.30;99.90;;;;;;5075126;28;20672;-63
2021/08/01 02:09:44;;;;;;;6.22;3.83;;;18.30;99.90;;;;;;5075160;28;20224;-63
2021/08/01 02:12:17;;;;;;;7.38;3.85;;;18.10;99.90;;;;;;5074962;28;20209;-63
2021/08/01 02:14:58;;;;;;;5.63;3.67;;;18.10;99.90;;;;;;5074956;28;20225;-63
2021/08/01 02:17:30;;;;;;;5.32;3.92;;;18.00;99.90;;;;;;5075488;28;20644;-63
2021/08/01 02:20:00;;;;;;;5.95;3.97;;;17.90;99.90;;;;;;5074817;28;20232;-63
2021/08/01 02:22:27;;;;;;;5.35;4.20;;;17.90;99.90;;;;;;5075214;28;20209;-63
2021/08/01 02:24:56;;;;;;;10.82;4.47;;;17.90;99.90;;;;;;5075170;28;20274;-63
2021/08/01 02:27:24;;;;;;;6.13;4.30;;;17.90;99.90;;;;;;5074845;28;20209;-63
2021/08/01 02:29:51;;;;;;;6.07;4.00;;;18.00;99.90;;;;;;5074639;28;20642;-63
2021/08/01 02:32:19;;;;;;;6.38;3.83;;;18.00;99.90;;;;;;5074760;28;20215;-63
2021/08/01 02:34:46;;;;;;;9.00;4.45;;;18.10;99.90;;;;;;5074132;28;20229;-62
2021/08/01 02:37:15;;;;;;;6.80;4.40;;;18.10;99.90;;;;;;5074594;28;20216;-63
2021/08/01 02:39:43;;;;;;;7.35;4.10;;;18.10;99.90;;;;;;5074410;28;20240;-63
2021/08/01 02:42:11;;;;;;;5.95;4.03;;;18.20;99.90;;;;;;5074777;28;20247;-63
2021/08/01 02:44:41;;;;;;;5.18;3.40;;;18.20;99.90;;;;;;5074351;28;20202;-63
2021/08/01 02:47:09;;;;;;;6.53;4.05;;;18.20;99.90;;;;;;5075187;28;20197;-63
2021/08/01 02:49:40;;;;;;;4.60;3.80;;;18.20;99.90;;;;;;5074742;28;20721;-63
2021/08/01 02:52:11;;;;;;;6.85;4.10;;;18.20;99.90;;;;;;5075336;28;20201;-63
2021/08/01 02:54:40;;;;;;;7.88;4.05;;;18.20;99.90;;;;;;5074388;28;20221;-63
2021/08/01 02:57:12;;;;;;;8.02;4.15;;;18.10;99.90;;;;;;5074541;28;20215;-63
2021/08/01 02:59:41;;;;;;;5.10;3.80;;;18.20;99.90;;;;;;5074127;28;20652;-63
2021/08/01 03:02:10;;;;;;;4.40;3.72;;;18.20;99.90;;;;;;5074069;28;20212;-63
2021/08/01 03:04:38;;;;;;;6.18;4.47;;;18.20;99.90;;;;;;5074743;28;20582;-62
2021/08/01 03:07:06;;;;;;;7.13;3.63;;;18.20;99.90;;;;;;5074526;28;20205;-63
2021/08/01 03:09:33;;;;;;;5.32;3.20;;;18.20;99.90;;;;;;5074087;28;20229;-63
2021/08/01 03:12:08;;;;;;;5.40;3.97;;;18.30;99.90;;;;;;5074265;28;20201;-63
2021/08/01 03:14:35;;;;;;;7.10;3.55;;;18.30;99.90;;;;;;5073919;28;20802;-63
2021/08/01 03:17:04;;;;;;;7.13;3.78;;;18.20;99.90;;;;;;5074215;28;20213;-63
2021/08/01 03:19:32;;;;;;;4.78;3.67;;;18.30;99.90;;;;;;5073871;28;20225;-63
2021/08/01 03:21:58;;;;;;;7.43;3.58;;;18.30;99.90;;;;;;5073989;28;20208;-63
2021/08/01 03:24:25;;;;;;;4.85;3.63;;;18.30;99.90;;;;;;5073808;28;20197;-63
2021/08/01 03:26:52;;;;;;;6.05;3.50;;;18.30;99.90;;;;;;5074275;28;20200;-63
2021/08/01 03:29:18;;;;;;;4.90;3.70;;;18.30;99.90;;;;;;5073958;28;20221;-63
2021/08/01 03:31:45;;;;;;;5.93;3.58;;;18.30;99.90;;;;;;5074564;28;20212;-63
2021/08/01 03:34:13;;;;;;;5.40;3.45;;;18.40;99.90;;;;;;5074564;28;20270;-63
2021/08/01 03:36:40;;;;;;;8.85;3.72;;;18.40;99.90;;;;;;5074171;28;20209;-63
2021/08/01 03:41:34;;;;;;;6.85;3.80;;;18.40;99.90;;;;;;5115602;22;20327;-63
2021/08/01 03:44:00;;;;;;;7.30;3.65;;;18.40;99.90;;;;;;5092776;28;20217;-63
2021/08/01 03:46:27;;;;;;;6.53;3.58;;;18.30;99.90;;;;;;5093158;28;20295;-63
2021/08/01 03:48:54;;;;;;;5.03;3.50;;;18.30;99.90;;;;;;5092728;28;20204;-64
2021/08/01 03:51:22;;;;;;;5.00;3.47;;;18.30;99.90;;;;;;5093134;28;20231;-63
2021/08/01 03:53:48;;;;;;;5.68;3.92;;;18.30;99.90;;;;;;5092605;28;20232;-63
2021/08/01 03:56:15;;;;;;;4.43;3.30;;;18.30;99.90;;;;;;5093227;28;20212;-63
2021/08/01 03:58:42;;;;;;;4.88;3.10;;;18.30;99.90;;;;;;5092801;28;20273;-64
2021/08/01 04:01:08;;;;;;;4.30;3.42;;;18.30;99.90;;;;;;5092752;28;20227;-64
2021/08/01 04:03:35;;;;;;;5.72;4.10;;;18.30;99.90;;;;;;5092598;28;20808;-63
2021/08/01 04:06:04;;;;;;;6.03;3.60;;;18.30;99.90;;;;;;5092554;28;20609;-64
2021/08/01 04:08:33;;;;;;;6.00;3.42;;;18.30;99.90;;;;;;5092352;28;20583;-64
2021/08/01 04:11:04;;;;;;;4.22;3.60;;;18.30;99.90;;;;;;5092374;28;20232;-63
2021/08/01 04:13:30;;;;;;;6.28;3.95;;;18.30;99.90;;;;;;5092735;28;20224;-63
2021/08/01 04:15:57;;;;;;;8.07;4.00;;;18.30;99.90;;;;;;5093253;28;20205;-64
2021/08/01 04:18:24;;;;;;;5.40;3.80;;;18.30;99.90;;;;;;5092469;28;20691;-64
2021/08/01 04:20:50;;;;;;;4.90;4.00;;;18.30;99.90;;;;;;5092116;28;20224;-63
2021/08/01 04:23:17;;;;;;;5.97;3.70;;;18.20;99.90;;;;;;5092366;28;20208;-63
2021/08/01 04:25:45;;;;;;;7.20;5.28;;;18.10;99.90;;;;;;5092199;28;20255;-63
2021/08/01 04:28:12;;;;;;;5.88;4.00;;;18.20;99.90;;;;;;5092304;28;20534;-64
2021/08/01 04:30:38;;;;;;;5.75;3.88;;;18.20;99.90;;;;;;5092167;28;20224;-64
2021/08/01 04:33:05;;;;;;;5.55;4.07;;;18.10;99.90;;;;;;5093252;28;20204;-63
2021/08/01 04:35:32;;;;;;;8.75;5.57;;;18.20;99.90;;;;;;5092112;28;20224;-63
2021/08/01 04:38:01;;;;;;;6.88;4.13;;;18.10;99.90;;;;;;5091692;28;20618;-64
2021/08/01 04:40:28;;;;;;;6.90;4.57;;;18.20;99.90;;;;;;5092023;28;20232;-63
2021/08/01 04:42:57;;;;;;;8.70;6.22;;;18.10;99.90;;;;;;5092249;28;20295;-63
2021/08/01 04:45:24;;;;;;;7.65;5.60;;;18.10;99.90;;;;;;5091764;28;20208;-63
2021/08/01 04:47:50;;;;;;;5.35;3.90;;;18.10;99.90;;;;;;5091910;28;20208;-63
2021/08/01 04:50:17;;;;;;;7.80;4.18;;;18.20;99.90;;;;;;5091590;28;20224;-63
2021/08/01 04:52:44;;;;;;;5.20;3.97;;;18.20;99.90;;;;;;5091544;28;20200;-63
2021/08/01 04:55:12;;;;;;;6.28;4.50;;;18.30;99.90;;;;;;5091752;28;20231;-63
2021/08/01 04:57:38;;;;;;;7.70;3.90;;;18.20;99.90;;;;;;5091660;28;20679;-64
2021/08/01 05:00:08;;;;;;;5.63;3.67;;;18.30;99.90;;;;;;5091492;28;20228;-63
2021/08/01 05:02:35;;;;;;;6.07;3.50;;;18.30;99.90;;;;;;5091619;28;20558;-63
2021/08/01 05:05:02;;;;;;;4.88;4.05;;;18.30;99.90;;;;;;5091798;28;20253;-62
2021/08/01 05:07:29;;;;;;;3.92;3.40;;;18.20;99.90;;;;;;5091346;28;20737;-63
2021/08/01 05:09:56;;;;;;;6.80;4.32;;;18.20;99.90;;;;;;5091292;28;20224;-63
2021/08/01 05:12:22;;;;;;;3.97;3.15;;;18.20;99.90;;;;;;5091386;28;20227;-64
2021/08/01 05:14:49;;;;;;;4.05;3.05;;;18.20;99.90;;;;;;5091302;28;20225;-64
2021/08/01 05:17:17;;;;;;;4.88;3.67;;;18.20;99.90;;;;;;5091314;28;20687;-63
2021/08/01 05:19:44;;;;;;;3.97;3.15;;;18.30;99.90;;;;;;5091100;28;20235;-63
2021/08/01 05:22:12;;;;;;;4.57;2.88;;;18.30;99.90;;;;;;5091287;28;20603;-63
2021/08/01 05:24:40;;;;;;;3.88;3.30;;;18.40;99.90;;;;;;5091496;28;20196;-63
2021/08/01 05:27:08;;;;;;;4.85;3.38;;;18.30;99.90;;;;;;5091431;28;20405;-64
2021/08/01 05:29:34;;;;;;;5.65;2.85;;;18.40;99.90;;;;;;5091586;28;20223;-63
2021/08/01 05:32:01;;;;;;;5.03;3.00;;;18.40;99.90;;;;;;5090804;28;20204;-64
2021/08/01 05:34:31;;;;;;;4.97;3.50;;;18.50;99.90;;;;;;5092139;28;20224;-63
2021/08/01 05:36:58;;;;;;;4.80;3.33;;;18.40;99.90;;;;;;5091830;28;20204;-63
2021/08/01 05:39:25;;;;;;;4.70;3.72;;;18.50;99.90;;;;;;5091459;28;20200;-63
2021/08/01 05:41:52;;;;;;;4.78;3.05;;;18.60;99.90;;;;;;5091465;28;20215;-64
2021/08/01 05:44:18;;;;;;;4.00;3.05;;;18.60;99.90;;;;;;5091202;28;20202;-63
2021/08/01 05:46:45;;;;;;;4.57;3.10;;;18.60;99.90;;;;;;5090946;28;20210;-62
2021/08/01 05:49:12;;;;;;;4.40;3.15;;;18.60;99.90;;;;;;5090922;28;20204;-64
2021/08/01 05:51:40;;;;;;;5.07;3.80;;;18.60;99.90;;;;;;5091164;28;20261;-64
2021/08/01 05:54:07;;;;;;;4.68;3.13;;;18.70;99.90;;;;;;5090753;28;20270;-63
2021/08/01 05:56:33;;;;;;;7.22;5.30;;;18.80;99.90;;;;;;5090700;28;20208;-63
2021/08/01 05:59:01;;;;;;;5.80;4.10;;;18.80;99.90;;;;;;5090763;28;20200;-63
2021/08/01 06:01:28;;;;;;;6.63;4.80;;;18.90;99.90;;;;;;5090913;28;20227;-63
2021/08/01 06:03:55;;;;;;;4.63;3.13;;;18.90;99.90;;;;;;5091210;28;20204;-64
2021/08/01 06:06:23;;;;;;;4.32;3.20;;;19.10;99.90;;;;;;5090836;28;20667;-64
2021/08/01 06:08:52;;;;;;;6.43;4.10;;;19.30;99.90;;;;;;5090879;28;20231;-64
2021/08/01 06:11:20;;;;;;;3.88;3.20;;;19.40;99.90;;;;;;5090532;28;20277;-64
2021/08/01 06:13:47;;;;;;;5.68;3.65;;;19.60;99.90;;;;;;5090184;28;20244;-64
2021/08/01 06:16:14;;;;;;;3.85;2.80;;;19.80;99.90;;;;;;5090613;28;20612;-64
2021/08/01 06:18:41;;;;;;;5.80;2.60;;;20.10;99.90;;;;;;5090762;28;20214;-64
2021/08/01 06:21:13;;;;;;;3.25;2.63;;;20.40;99.90;;;;;;5090808;28;20224;-64
2021/08/01 06:23:40;;;;;;;5.15;3.30;;;20.70;99.90;;;;;;5090454;28;20211;-64
2021/08/01 06:26:08;;;;;;;5.53;3.85;;;21.00;99.90;;;;;;5090614;28;20196;-65
2021/08/01 06:28:34;;;;;;;3.47;2.30;;;21.50;99.90;;;;;;5090572;28;20211;-65
2021/08/01 06:31:02;;;;;;;4.60;2.35;;;21.90;99.90;;;;;;5090691;28;20247;-63
2021/08/01 06:33:29;;;;;;;3.90;2.55;;;22.60;99.90;;;;;;5090481;28;20296;-63
2021/08/01 06:35:56;;;;;;;3.53;2.50;;;23.10;99.90;;;;;;5090405;28;20220;-64
2021/08/01 06:38:23;;;;;;;5.20;2.63;;;23.30;99.90;;;;;;5090460;28;20200;-64
2021/08/01 06:40:49;;;;;;;4.47;2.95;;;23.20;99.90;;;;;;5090672;28;20746;-64
2021/08/01 06:43:18;;;;;;;7.47;4.40;;;23.00;99.90;;;;;;5092153;28;20293;-64
2021/08/01 06:45:44;;;;;;;5.30;3.85;;;22.70;99.90;;;;;;5094261;28;20235;-64
2021/08/01 06:48:11;;;;;;;5.57;3.88;;;22.30;99.90;;;;;;5094031;28;20675;-64
2021/08/01 06:50:38;;;;;;;4.00;3.25;;;22.00;99.90;;;;;;5094260;28;20580;-64
2021/08/01 06:53:05;;;;;;;4.20;3.00;;;21.70;99.90;;;;;;5094171;28;20204;-64
2021/08/01 06:55:31;;;;;;;7.05;3.20;;;21.60;99.90;;;;;;5093799;28;20216;-65
2021/08/01 06:57:58;;;;;;;4.85;3.22;;;21.40;99.90;;;;;;5094194;28;20273;-64
2021/08/01 07:00:26;;;;;;;4.22;2.72;;;21.30;99.90;;;;;;5094166;28;20224;-64
2021/08/01 07:02:54;;;;;;;2.97;2.67;;;21.20;99.90;;;;;;5094175;28;20211;-64
2021/08/01 07:05:21;;;;;;;3.67;2.97;;;21.00;99.90;;;;;;5093959;28;20200;-64
2021/08/01 07:07:48;;;;;;;4.38;3.03;;;20.70;99.90;;;;;;5094119;28;20227;-64
2021/08/01 07:10:15;;;;;;;7.65;4.30;;;20.60;99.90;;;;;;5093562;28;20712;-64
2021/08/01 07:12:42;;;;;;;5.03;3.38;;;20.60;99.90;;;;;;5093739;28;20208;-64
2021/08/01 07:15:10;;;;;;;6.53;3.67;;;20.50;99.90;;;;;;5093447;28;20220;-64
2021/08/01 07:17:39;;;;;;;5.40;3.28;;;20.40;99.90;;;;;;5093593;28;20696;-64
2021/08/01 07:20:08;;;;;;;3.65;2.97;;;20.40;99.90;;;;;;5093668;28;20220;-64
2021/08/01 07:22:35;;;;;;;5.32;3.10;;;20.40;99.90;;;;;;5093360;28;20586;-63
2021/08/01 07:25:02;;;;;;;8.90;3.50;;;20.40;99.90;;;;;;5093533;28;20447;-64
2021/08/01 07:27:29;;;;;;;6.93;3.47;;;20.30;99.90;;;;;;5093552;28;20212;-63
2021/08/01 07:29:56;;;;;;;7.20;5.15;;;20.40;99.90;;;;;;5093277;28;20568;-64
2021/08/01 07:32:23;;;;;;;4.63;3.40;;;20.50;99.90;;;;;;5093529;28;20277;-64
2021/08/01 07:34:51;;;;;;;6.03;3.65;;;20.50;99.90;;;;;;5093261;28;20216;-64
2021/08/01 07:37:18;;;;;;;5.45;3.05;;;20.50;99.90;;;;;;5093429;28;20212;-63
2021/08/01 07:39:45;;;;;;;3.75;3.25;;;20.60;99.90;;;;;;5092976;28;20722;-65
2021/08/01 07:42:13;;;;;;;5.97;3.42;;;20.60;99.90;;;;;;5093336;28;20216;-64
2021/08/01 07:44:47;;;;;;;6.10;3.28;;;20.70;99.90;;;;;;5092985;28;20482;-64
2021/08/01 07:47:14;;;;;;;5.47;3.97;;;20.80;99.90;;;;;;5093185;28;20238;-64
2021/08/01 07:49:41;;;;;;;5.22;3.70;;;20.90;99.90;;;;;;5092847;28;20227;-64
2021/08/01 07:52:10;;;;;;;3.67;3.13;;;20.90;99.90;;;;;;5092983;28;20664;-64
2021/08/01 07:54:36;;;;;;;5.72;3.90;;;20.80;99.90;;;;;;5091872;28;20251;-62
2021/08/01 07:57:03;;;;;;;4.32;3.10;;;20.80;99.90;;;;;;5093267;28;20208;-63
2021/08/01 07:59:30;;;;;;;6.25;3.70;;;20.90;99.90;;;;;;5092684;28;20240;-65
2021/08/01 08:01:57;;;;;;;12.27;7.30;;;20.90;99.90;;;;;;5092826;28;20204;-64
2021/08/01 08:04:24;;;;;;;6.45;4.43;;;20.90;99.90;;;;;;5092860;28;20211;-62
2021/08/01 08:06:51;;;;;;;5.18;3.60;;;21.10;99.90;;;;;;5092777;28;20208;-62
2021/08/01 08:09:21;;;;;;;5.03;2.83;;;21.10;99.90;;;;;;5092557;28;20232;-65
2021/08/01 08:11:48;;;;;;;4.70;3.22;;;21.20;99.90;;;;;;5092619;28;20239;-63
2021/08/01 08:14:15;;;;;;;4.10;3.28;;;21.30;99.90;;;;;;5092579;28;20204;-63
2021/08/01 08:16:41;;;;;;;5.45;3.17;;;21.30;99.90;;;;;;5093106;28;20228;-62
2021/08/01 08:19:08;;;;;;;5.97;3.13;;;21.40;99.90;;;;;;5092799;28;20208;-62
2021/08/01 08:21:34;;;;;;;7.30;3.20;;;21.50;99.90;;;;;;5093000;28;20269;-62
2021/08/01 08:24:01;;;;;;;5.13;3.55;;;21.60;99.90;;;;;;5092228;28;20294;-63
2021/08/01 08:26:29;;;;;;;4.30;2.83;;;21.60;99.90;;;;;;5092341;28;20200;-62
2021/08/01 08:28:56;;;;;;;4.90;2.97;;;21.60;99.90;;;;;;5092054;28;20729;-62
2021/08/01 08:31:22;;;;;;;3.53;2.90;;;21.60;99.90;;;;;;5092101;28;20695;-62
2021/08/01 08:33:49;;;;;;;6.05;3.13;;;21.70;99.90;;;;;;5092126;28;20412;-62
2021/08/01 08:36:16;;;;;;;3.42;2.70;;;21.70;99.90;;;;;;5092800;28;20251;-62
2021/08/01 08:38:42;;;;;;;3.53;2.80;;;21.60;99.90;;;;;;5092269;28;20208;-62
2021/08/01 08:41:13;;;;;;;4.13;3.10;;;21.70;99.90;;;;;;5091867;28;20243;-62
2021/08/01 08:43:41;;;;;;;4.38;3.00;;;21.60;99.90;;;;;;5091588;28;20228;-62
2021/08/01 08:46:10;;;;;;;4.00;3.08;;;21.60;99.90;;;;;;5091948;28;20555;-62
2021/08/01 08:48:37;;;;;;;4.45;3.15;;;21.80;99.90;;;;;;5091766;28;20208;-62
2021/08/01 08:51:07;;;;;;;2.97;2.50;;;21.90;99.90;;;;;;5091780;28;20224;-62
2021/08/01 08:53:36;;;;;;;3.70;2.78;;;21.90;99.90;;;;;;5091703;28;20213;-62
2021/08/01 08:56:03;;;;;;;4.18;2.70;;;22.10;99.90;;;;;;5091496;28;20722;-63
2021/08/01 08:58:33;;;;;;;5.53;2.92;;;22.20;99.90;;;;;;5091675;28;20204;-63
2021/08/01 09:01:01;;;;;;;3.53;2.80;;;22.30;99.90;;;;;;5091631;28;20232;-63
2021/08/01 09:03:29;;;;;;;5.07;2.78;;;22.40;99.90;;;;;;5091427;28;20204;-63
2021/08/01 09:05:59;;;;;;;7.40;2.80;;;22.60;99.90;;;;;;5091149;28;20640;-63
2021/08/01 09:08:26;;;;;;;3.65;2.72;;;22.80;99.90;;;;;;5091199;28;20683;-63
2021/08/01 09:10:53;;;;;;;5.10;2.78;;;23.00;99.90;;;;;;5091251;28;20235;-63
2021/08/01 09:13:44;;;;;;;4.47;3.05;;;23.30;99.90;;;;;;5091444;28;20748;-63
2021/08/01 09:16:14;;;;;;;5.95;2.70;;;23.40;99.90;;;;;;5091160;28;20228;-63
2021/08/01 09:18:41;;;;;;;4.82;2.95;;;23.60;99.90;;;;;;5091396;28;20204;-63
2021/08/01 09:21:08;;;;;;;4.05;2.55;;;23.70;99.90;;;;;;5091113;28;20224;-63
2021/08/01 09:23:36;;;;;;;3.33;2.40;;;23.70;99.90;;;;;;5091488;28;20215;-63
2021/08/01 09:26:04;;;;;;;4.00;2.60;;;23.80;99.90;;;;;;5091278;28;20227;-63
2021/08/01 09:28:32;;;;;;;5.07;2.50;;;23.70;99.90;;;;;;5091370;28;20204;-62
2021/08/01 09:30:59;;;;;;;4.40;2.50;;;23.70;99.90;;;;;;5091391;28;20232;-63
2021/08/01 09:33:36;;;;;;;4.78;2.65;;;23.70;99.90;;;;;;5091413;28;20208;-62
2021/08/01 09:36:11;;;;;;;5.25;2.55;;;23.80;99.90;;;;;;5091304;28;20220;-63
2021/08/01 09:38:46;;;;;;;4.40;2.95;;;23.90;99.90;;;;;;5091253;28;20204;-63
2021/08/01 09:41:13;;;;;;;4.65;2.88;;;23.90;99.90;;;;;;5104136;22;20228;-66
2021/08/01 09:43:48;;;;;;;4.20;2.70;;;23.80;99.90;;;;;;5091252;28;20200;-64
2021/08/01 09:46:15;;;;;;;4.65;2.90;;;23.70;99.90;;;;;;5090856;28;20614;-63
2021/08/01 09:48:43;;;;;;;5.68;3.03;;;23.70;99.90;;;;;;5090995;28;20620;-64
2021/08/01 09:51:11;;;;;;;4.32;2.70;;;23.80;99.90;;;;;;5091114;28;20235;-64
2021/08/01 09:53:40;;;;;;;3.60;2.65;;;24.00;99.90;;;;;;5090968;28;20204;-64
2021/08/01 09:56:14;;;;;;;3.95;2.40;;;23.90;99.90;;;;;;5091184;28;20251;-64
2021/08/01 09:58:42;;;;;;;4.38;2.40;;;23.90;99.90;;;;;;5090681;28;20203;-64
2021/08/01 10:01:09;;;;;;;6.65;2.65;;;23.80;99.90;;;;;;5090762;28;20228;-64
2021/08/01 10:03:37;;;;;;;4.95;2.83;;;23.70;99.90;;;;;;5090878;28;20204;-64
2021/08/01 10:06:13;;;;;;;2.47;2.13;;;23.70;99.90;;;;;;5091008;28;20197;-64
2021/08/01 10:08:41;;;;;;;5.03;2.55;;;23.70;99.90;;;;;;5090793;28;20200;-64
2021/08/01 10:11:13;;;;;;;8.10;2.60;;;23.80;99.90;;;;;;5079124;28;20640;-66
2021/08/01 10:13:40;;;;;;;8.80;3.40;;;23.80;99.90;;;;;;5070539;28;20221;-63
2021/08/01 10:16:09;;;;;;;4.65;2.63;;;23.80;99.90;;;;;;5070287;28;20279;-63
2021/08/01 10:18:36;;;;;;;4.38;2.35;;;23.50;99.90;;;;;;5072152;28;20749;-63
2021/08/01 10:21:03;;;;;;;5.45;2.85;;;23.20;99.90;;;;;;5074508;28;20232;-63
2021/08/01 10:23:37;;;;;;;3.03;2.30;;;23.00;99.90;;;;;;5074818;28;20205;-63
2021/08/01 10:26:06;;;;;;;3.90;2.53;;;22.70;99.90;;;;;;5075076;28;20233;-63
2021/08/01 10:28:35;;;;;;;4.93;2.85;;;22.50;99.90;;;;;;5075013;28;20205;-63
2021/08/01 10:31:04;;;;;;;5.68;3.05;;;22.10;99.90;;;;;;5074927;28;20225;-63
2021/08/01 10:33:45;;;;;;;4.22;2.53;;;21.90;99.90;;;;;;5074658;28;20211;-63
2021/08/01 10:36:17;;;;;;;3.53;2.80;;;21.60;99.90;;;;;;5074668;28;20227;-63
2021/08/01 10:38:46;;;;;;;5.47;3.03;;;21.30;99.90;;;;;;5074449;28;20205;-63
2021/08/01 10:41:13;;;;;;;4.35;2.78;;;21.10;99.90;;;;;;5074294;28;20782;-63
2021/08/01 10:43:41;;;;;;;6.95;3.70;;;20.80;99.90;;;;;;5074337;28;20258;-63
2021/08/01 10:46:10;;;;;;;3.83;3.10;;;20.70;99.90;;;;;;5074821;28;20293;-63
2021/08/01 10:48:37;;;;;;;4.70;3.10;;;20.50;99.90;;;;;;5073813;28;20669;-64
2021/08/01 10:51:04;;;;;;;3.25;2.63;;;20.40;99.90;;;;;;5074141;28;20290;-63
2021/08/01 10:53:31;;;;;;;5.35;3.03;;;20.30;99.90;;;;;;5073854;28;20239;-63
2021/08/01 10:56:33;;;;;;;3.30;2.58;;;20.20;99.90;;;;;;5074042;28;20232;-63
2021/08/01 10:59:00;;;;;;;3.88;2.83;;;20.20;99.90;;;;;;5073643;28;20212;-63
2021/08/01 11:01:27;;;;;;;4.10;2.38;;;20.10;99.90;;;;;;5073612;28;20225;-63
2021/08/01 11:04:32;;;;;;;4.32;2.78;;;20.20;99.90;;;;;;5073595;28;20205;-64
2021/08/01 11:06:59;;;;;;;4.00;3.35;;;20.30;99.90;;;;;;5072885;28;20201;-65
2021/08/01 11:09:25;;;;;;;3.92;2.60;;;20.40;99.90;;;;;;5073674;28;20350;-63
2021/08/01 11:12:31;;;;;;;4.07;3.20;;;20.50;99.90;;;;;;5073446;28;20230;-63
2021/08/01 11:14:58;;;;;;;9.95;5.47;;;20.60;99.90;;;;;;4971976;28;20604;-63
2021/08/01 11:18:07;;;;;;;6.47;4.45;;;20.90;99.90;;;;;;5054982;28;20240;-63
2021/08/01 11:20:50;;;;;;;3.97;2.78;;;21.50;99.90;;;;;;5060984;28;20303;-64
2021/08/01 11:23:17;;;;;;;5.15;2.83;;;22.20;99.90;;;;;;5073309;28;20205;-64
2021/08/01 11:26:05;;;;;;;5.30;3.33;;;22.80;99.90;;;;;;5073095;28;20259;-64
2021/08/01 11:28:35;;;;;;;4.38;2.67;;;23.20;99.90;;;;;;5072914;28;20672;-64
2021/08/01 11:31:08;;;;;;;4.22;2.88;;;23.60;99.90;;;;;;5073351;28;20231;-64
2021/08/01 11:33:36;;;;;;;3.83;2.67;;;23.90;99.90;;;;;;5073300;28;20220;-64
2021/08/01 11:36:23;;;;;;;4.28;2.42;;;24.10;99.90;;;;;;5073162;28;20235;-64
2021/08/01 11:39:04;;;;;;;4.38;3.15;;;24.20;99.90;;;;;;5072874;28;20296;-63
2021/08/01 11:41:43;;;;;;;3.97;2.15;;;24.40;99.90;;;;;;5072979;28;20264;-63
2021/08/01 11:44:14;;;;;;;3.90;2.30;;;24.20;99.90;;;;;;5072803;28;20200;-63
2021/08/01 11:47:09;;;;;;;4.55;3.60;;;24.20;99.90;;;;;;5073524;28;20201;-63
2021/08/01 11:49:43;;;;;;;5.28;2.65;;;24.20;99.90;;;;;;5072592;28;20238;-62
2021/08/01 11:52:11;;;;;;;4.65;2.70;;;24.10;99.90;;;;;;5073579;28;20208;-63
2021/08/01 11:54:39;;;;;;;8.90;5.35;;;24.40;99.90;;;;;;5072690;28;20212;-63
2021/08/01 11:57:07;;;;;;;7.28;5.30;;;24.70;99.90;;;;;;5072555;28;20247;-63
2021/08/01 11:59:36;;;;;;;4.20;2.33;;;25.10;99.90;;;;;;5072747;28;20652;-63
2021/08/01 12:02:09;;;;;;;4.45;2.72;;;25.30;99.90;;;;;;5072675;28;20205;-63
2021/08/01 12:04:35;;;;;;;5.07;2.30;;;25.60;99.90;;;;;;5072775;28;20247;-63
2021/08/01 12:07:02;;;;;;;4.05;2.60;;;25.80;99.90;;;;;;5072370;28;20234;-63
2021/08/01 12:09:31;;;;;;;6.18;2.50;;;26.00;99.90;;;;;;5072227;28;20205;-63
2021/08/01 12:12:00;;;;;;;3.33;2.20;;;26.20;99.90;;;;;;5072142;28;20208;-63
2021/08/01 12:14:28;;;;;;;4.00;2.38;;;26.20;99.90;;;;;;5072376;28;20270;-64
2021/08/01 12:16:58;;;;;;;4.07;2.15;;;26.10;99.90;;;;;;5072018;28;20229;-64
2021/08/01 12:19:26;;;;;;;3.75;2.50;;;26.00;99.90;;;;;;5072341;28;20215;-63
2021/08/01 12:21:55;;;;;;;5.90;2.25;;;25.80;99.90;;;;;;5071973;28;20209;-64
2021/08/01 12:24:40;;;;;;;3.60;2.33;;;25.80;99.90;;;;;;5072004;28;20201;-64
2021/08/01 12:27:10;;;;;;;3.13;2.13;;;25.80;99.90;;;;;;5072155;28;20212;-63
2021/08/01 12:29:39;;;;;;;4.32;2.20;;;25.90;99.90;;;;;;5071719;28;20759;-63
2021/08/01 12:32:25;;;;;;;3.75;2.20;;;26.10;99.90;;;;;;5071658;28;20668;-64
2021/08/01 12:34:59;;;;;;;2.45;2.25;;;26.20;99.90;;;;;;5071999;28;20208;-63
2021/08/01 12:37:26;;;;;;;4.28;2.53;;;26.40;99.90;;;;;;5072704;28;20228;-63
2021/08/01 12:39:54;;;;;;;2.33;1.95;;;26.60;99.90;;;;;;5071636;28;20589;-63
2021/08/01 12:42:23;;;;;;;2.83;2.30;;;26.80;99.90;;;;;;5071239;28;20255;-63
2021/08/01 12:44:55;;;;;;;5.82;2.33;;;26.80;99.90;;;;;;5071249;28;20689;-63
2021/08/01 12:47:23;;;;;;;5.03;2.33;;;26.60;99.90;;;;;;5071779;28;20205;-64
2021/08/01 12:49:51;;;;;;;2.88;2.30;;;26.60;99.90;;;;;;5071488;28;20233;-63
2021/08/01 12:52:23;;;;;;;3.72;1.90;;;26.40;99.90;;;;;;5071636;28;20628;-63
2021/08/01 12:54:51;;;;;;;4.50;2.80;;;26.20;99.90;;;;;;5071379;28;20278;-63
2021/08/01 12:57:18;;;;;;;3.10;1.98;;;26.30;99.90;;;;;;5071249;28;20723;-63